createdAt,value
2018-12-26T00:03:16.368Z,0.47
2018-12-26T00:05:46.104Z,0.50
2018-12-26T00:08:15.826Z,0.40
2018-12-26T00:10:45.918Z,0.50
2018-12-26T00:13:15.564Z,0.33
2018-12-26T00:15:45.273Z,0.30
2018-12-26T00:18:15.181Z,0.40
2018-12-26T00:20:44.780Z,0.30
2018-12-26T00:23:14.442Z,0.67
2018-12-26T00:25:44.689Z,0.37
2018-12-26T00:28:14.315Z,0.30
2018-12-26T00:30:44.274Z,0.40
2018-12-26T00:33:14.121Z,0.30
2018-12-26T00:35:43.833Z,0.40
2018-12-26T00:38:13.453Z,0.30
2018-12-26T00:40:43.215Z,0.20
2018-12-26T00:43:13.002Z,0.30
2018-12-26T00:46:21.968Z,0.20
2018-12-26T00:49:10.545Z,0.30
2018-12-26T00:54:15.488Z,0.47
2018-12-26T00:56:45.145Z,0.40
2018-12-26T00:59:14.768Z,0.30
2018-12-26T01:01:44.584Z,0.20
2018-12-26T01:04:14.247Z,0.27
2018-12-26T01:06:43.867Z,0.40
2018-12-26T01:09:14.060Z,0.30
2018-12-26T01:12:22.865Z,0.20
2018-12-26T01:14:52.715Z,0.33
2018-12-26T01:17:22.333Z,0.20
2018-12-26T01:20:11.162Z,0.33
2018-12-26T01:22:40.789Z,0.20
2018-12-26T01:25:10.763Z,0.20
2018-12-26T01:27:40.497Z,0.30
2018-12-26T01:30:10.114Z,0.20
2018-12-26T01:32:39.721Z,0.20
2018-12-26T01:35:09.732Z,0.10
2018-12-26T01:37:39.359Z,0.20
2018-12-26T01:40:08.985Z,0.10
2018-12-26T01:42:38.963Z,0.20
2018-12-26T01:45:08.698Z,0.30
2018-12-26T01:47:38.603Z,0.30
2018-12-26T01:50:08.500Z,0.20
2018-12-26T01:52:38.134Z,0.20
2018-12-26T01:55:07.776Z,0.20
2018-12-26T01:57:37.623Z,0.40
2018-12-26T02:00:07.568Z,0.30
2018-12-26T02:02:37.293Z,0.20
2018-12-26T02:05:07.371Z,0.20
2018-12-26T02:07:36.996Z,0.20
2018-12-26T02:10:07.016Z,0.27
2018-12-26T02:12:37.286Z,0.20
2018-12-26T02:15:07.007Z,0.13
2018-12-26T02:17:36.641Z,0.20
2018-12-26T02:20:06.879Z,0.20
2018-12-26T02:22:36.518Z,0.30
2018-12-26T02:25:06.230Z,0.37
2018-12-26T02:27:36.288Z,0.20
2018-12-26T02:30:06.735Z,0.20
2018-12-26T02:32:36.400Z,0.30
2018-12-26T02:35:06.342Z,0.30
2018-12-26T02:37:35.965Z,0.10
2018-12-26T02:40:06.277Z,0.47
2018-12-26T02:42:36.188Z,0.30
2018-12-26T02:45:06.418Z,0.30
2018-12-26T02:47:36.147Z,0.20
2018-12-26T02:50:07.122Z,0.20
2018-12-26T02:52:36.755Z,0.17
2018-12-26T02:55:06.757Z,0.13
2018-12-26T02:57:36.705Z,0.20
2018-12-26T03:00:06.885Z,0.27
2018-12-26T03:02:36.534Z,0.17
2018-12-26T03:05:06.637Z,0.20
2018-12-26T03:07:36.259Z,0.20
2018-12-26T03:10:06.125Z,0.20
2018-12-26T03:12:36.174Z,0.20
2018-12-26T03:15:06.274Z,0.20
2018-12-26T03:17:35.927Z,0.30
2018-12-26T03:20:44.926Z,0.20
2018-12-26T03:23:14.569Z,0.30
2018-12-26T03:26:03.180Z,0.20
2018-12-26T03:28:32.782Z,0.20
2018-12-26T03:31:02.443Z,0.20
2018-12-26T03:33:51.067Z,0.30
2018-12-26T03:36:20.792Z,1.00
2018-12-26T03:38:50.423Z,0.20
2018-12-26T03:41:20.293Z,0.10
2018-12-26T03:43:50.015Z,0.27
2018-12-26T03:46:59.203Z,0.10
2018-12-26T03:49:40.721Z,0.33
2018-12-26T03:52:10.743Z,0.30
2018-12-26T03:54:40.383Z,0.20
2018-12-26T03:57:10.013Z,0.30
2018-12-26T03:59:39.875Z,0.10
2018-12-26T04:02:09.522Z,0.20
2018-12-26T04:04:39.158Z,0.30
2018-12-26T04:07:09.305Z,0.30
2018-12-26T04:09:57.804Z,0.20
2018-12-26T04:12:27.671Z,0.20
2018-12-26T04:14:57.422Z,0.20
2018-12-26T04:17:27.132Z,0.20
2018-12-26T04:19:57.009Z,0.10
2018-12-26T04:28:37.193Z,0.10
2018-12-26T04:31:06.825Z,0.20
2018-12-26T04:33:36.456Z,0.20
2018-12-26T04:36:06.426Z,0.10
2018-12-26T04:38:36.185Z,0.10
2018-12-26T04:41:05.815Z,0.20
2018-12-26T04:43:35.764Z,0.30
2018-12-26T04:46:05.491Z,0.30
2018-12-26T04:51:30.793Z,0.10
2018-12-26T04:54:00.704Z,0.20
2018-12-26T04:56:30.435Z,0.20
2018-12-26T04:59:00.236Z,0.23
2018-12-26T05:01:29.863Z,0.20
2018-12-26T05:03:59.536Z,0.20
2018-12-26T05:06:29.669Z,0.10
2018-12-26T05:08:59.537Z,0.20
2018-12-26T05:11:29.163Z,0.20
2018-12-26T05:13:58.934Z,0.30
2018-12-26T05:16:28.546Z,0.10
2018-12-26T05:18:58.167Z,0.33
2018-12-26T05:21:28.025Z,0.20
2018-12-26T05:23:57.646Z,0.23
2018-12-26T05:26:27.546Z,0.67
2018-12-26T05:28:57.717Z,0.10
2018-12-26T05:31:27.359Z,0.17
2018-12-26T05:33:56.992Z,0.10
2018-12-26T05:36:26.896Z,0.20
2018-12-26T05:38:56.517Z,0.20
2018-12-26T05:41:26.572Z,0.20
2018-12-26T05:43:56.432Z,0.30
2018-12-26T05:49:14.900Z,0.10
2018-12-26T05:51:44.589Z,0.30
2018-12-26T05:54:14.208Z,0.30
2018-12-26T05:56:44.333Z,0.30
2018-12-26T05:59:13.975Z,0.20
2018-12-26T06:01:43.601Z,0.40
2018-12-26T06:04:13.345Z,0.30
2018-12-26T06:06:43.880Z,0.20
2018-12-26T06:09:13.518Z,0.27
2018-12-26T06:11:43.713Z,0.33
2018-12-26T06:14:13.333Z,0.30
2018-12-26T06:16:42.940Z,0.70
2018-12-26T06:19:12.848Z,0.50
2018-12-26T06:21:42.482Z,0.47
2018-12-26T06:24:12.134Z,0.40
2018-12-26T06:26:42.077Z,0.40
2018-12-26T06:29:11.737Z,0.23
2018-12-26T06:31:41.325Z,0.93
2018-12-26T06:34:11.056Z,0.90
2018-12-26T06:36:40.675Z,0.40
2018-12-26T06:39:10.293Z,0.30
2018-12-26T06:41:40.049Z,0.37
2018-12-26T06:44:09.660Z,0.30
2018-12-26T06:46:39.316Z,0.20
2018-12-26T06:49:09.258Z,0.27
2018-12-26T06:51:57.686Z,0.23
2018-12-26T06:54:27.734Z,0.33
2018-12-26T06:56:57.438Z,0.40
2018-12-26T06:59:27.069Z,0.43
2018-12-26T07:01:56.954Z,0.30
2018-12-26T07:04:26.565Z,0.60
2018-12-26T07:06:56.203Z,0.33
2018-12-26T07:09:28.054Z,0.30
2018-12-26T07:11:57.689Z,0.53
2018-12-26T07:14:27.604Z,0.30
2018-12-26T07:16:57.261Z,0.40
2018-12-26T07:19:26.935Z,0.30
2018-12-26T07:21:56.783Z,0.30
2018-12-26T07:24:45.308Z,0.40
2018-12-26T07:27:22.285Z,1.00
2018-12-26T07:29:52.019Z,0.40
2018-12-26T07:32:21.632Z,0.30
2018-12-26T07:34:51.543Z,0.40
2018-12-26T07:37:21.204Z,0.23
2018-12-26T07:39:50.816Z,0.50
2018-12-26T07:42:20.572Z,0.70
2018-12-26T07:44:50.307Z,0.40
2018-12-26T07:47:19.965Z,0.40
2018-12-26T07:49:49.721Z,0.40
2018-12-26T07:52:19.428Z,0.50
2018-12-26T07:54:49.034Z,0.50
2018-12-26T07:57:19.037Z,0.20
2018-12-26T07:59:48.779Z,0.40
2018-12-26T08:02:18.411Z,0.40
2018-12-26T08:04:48.262Z,0.80
2018-12-26T08:07:18.009Z,0.50
2018-12-26T08:09:47.604Z,0.40
2018-12-26T08:12:17.497Z,0.50
2018-12-26T08:14:47.181Z,0.40
2018-12-26T08:17:16.790Z,0.60
2018-12-26T08:19:46.509Z,0.40
2018-12-26T08:27:28.682Z,0.40
2018-12-26T08:29:58.287Z,0.30
2018-12-26T08:32:27.904Z,0.53
2018-12-26T08:34:57.649Z,0.70
2018-12-26T08:37:27.276Z,0.30
2018-12-26T08:39:56.901Z,0.43
2018-12-26T08:42:45.753Z,0.50
2018-12-26T08:45:15.378Z,0.50
2018-12-26T08:50:33.746Z,0.53
2018-12-26T08:53:03.378Z,0.70
2018-12-26T08:55:33.019Z,0.40
2018-12-26T08:58:02.768Z,0.60
2018-12-26T09:00:32.509Z,0.60
2018-12-26T09:03:02.151Z,0.77
2018-12-26T09:05:31.902Z,0.70
2018-12-26T09:08:01.525Z,0.87
2018-12-26T09:10:31.166Z,0.50
2018-12-26T09:13:00.918Z,0.60
2018-12-26T09:15:30.561Z,0.50
2018-12-26T09:18:00.186Z,0.57
2018-12-26T09:20:30.136Z,0.40
2018-12-26T09:22:59.812Z,0.40
2018-12-26T09:25:30.153Z,0.47
2018-12-26T09:28:00.078Z,0.40
2018-12-26T09:30:29.737Z,0.50
2018-12-26T09:32:59.352Z,0.50
2018-12-26T09:35:29.097Z,0.40
2018-12-26T09:37:58.734Z,0.50
2018-12-26T09:40:28.485Z,0.70
2018-12-26T09:42:58.551Z,0.90
2018-12-26T09:45:28.184Z,0.97
2018-12-26T09:47:57.897Z,0.50
2018-12-26T09:50:27.892Z,0.60
2018-12-26T09:52:57.513Z,0.53
2018-12-26T09:55:27.133Z,0.70
2018-12-26T09:57:56.997Z,0.50
2018-12-26T10:00:26.621Z,0.53
2018-12-26T10:02:56.460Z,0.50
2018-12-26T10:05:26.249Z,0.60
2018-12-26T10:07:55.864Z,0.43
2018-12-26T10:10:25.484Z,0.67
2018-12-26T10:12:55.359Z,0.70
2018-12-26T10:15:24.993Z,1.10
2018-12-26T10:17:54.606Z,0.50
2018-12-26T10:20:24.486Z,0.63
2018-12-26T10:22:54.127Z,0.70
2018-12-26T10:25:23.796Z,0.50
2018-12-26T10:27:53.727Z,0.63
2018-12-26T10:30:23.423Z,0.90
2018-12-26T10:32:53.057Z,0.47
2018-12-26T10:35:22.947Z,0.50
2018-12-26T10:41:07.326Z,0.37
2018-12-26T10:43:36.972Z,0.40
2018-12-26T10:49:22.121Z,0.73
2018-12-26T10:51:51.750Z,0.57
2018-12-26T10:54:21.378Z,0.50
2018-12-26T10:56:51.255Z,0.67
2018-12-26T10:59:20.877Z,0.67
2018-12-26T11:01:50.531Z,0.83
2018-12-26T11:04:20.354Z,0.97
2018-12-26T11:06:50.011Z,0.90
2018-12-26T11:09:19.630Z,1.17
2018-12-26T11:11:49.512Z,0.90
2018-12-26T11:14:19.138Z,0.67
2018-12-26T11:17:28.076Z,0.90
2018-12-26T11:20:17.123Z,0.73
2018-12-26T11:22:47.021Z,0.50
2018-12-26T11:25:17.406Z,1.07
2018-12-26T11:27:47.023Z,0.80
2018-12-26T11:30:16.821Z,0.67
2018-12-26T11:33:07.821Z,0.70
2018-12-26T11:35:37.580Z,0.73
2018-12-26T11:41:16.725Z,0.70
2018-12-26T11:43:46.340Z,0.77
2018-12-26T11:46:16.031Z,0.60
2018-12-26T11:48:45.959Z,0.60
2018-12-26T11:51:15.593Z,1.30
2018-12-26T11:53:45.480Z,0.70
2018-12-26T11:56:15.221Z,1.10
2018-12-26T12:01:33.465Z,1.33
2018-12-26T12:04:03.089Z,1.10
2018-12-26T12:06:44.465Z,0.90
2018-12-26T12:09:14.131Z,0.90
2018-12-26T12:11:43.770Z,0.83
2018-12-26T12:14:13.681Z,0.90
2018-12-26T12:16:43.498Z,0.80
2018-12-26T12:19:13.155Z,1.10
2018-12-26T12:21:43.111Z,1.10
2018-12-26T12:24:12.733Z,1.10
2018-12-26T12:26:42.348Z,1.00
2018-12-26T12:29:12.127Z,0.90
2018-12-26T12:31:42.048Z,0.60
2018-12-26T12:34:11.707Z,0.60
2018-12-26T12:37:20.666Z,0.53
2018-12-26T12:39:50.289Z,0.60
2018-12-26T12:42:59.250Z,0.97
2018-12-26T12:45:28.882Z,0.50
2018-12-26T12:47:58.506Z,0.70
2018-12-26T12:50:28.880Z,0.60
2018-12-26T12:52:58.518Z,0.90
2018-12-26T12:55:28.147Z,0.60
2018-12-26T12:57:58.003Z,0.70
2018-12-26T13:00:27.654Z,0.67
2018-12-26T13:03:00.494Z,0.90
2018-12-26T13:08:04.417Z,1.20
2018-12-26T13:10:34.090Z,1.30
2018-12-26T13:13:03.721Z,1.00
2018-12-26T13:15:33.544Z,0.80
2018-12-26T13:18:03.227Z,0.83
2018-12-26T13:20:32.849Z,1.00
2018-12-26T13:23:21.485Z,0.83
2018-12-26T13:25:51.114Z,1.00
2018-12-26T13:28:20.748Z,0.90
2018-12-26T13:30:50.562Z,0.80
2018-12-26T13:33:20.191Z,1.00
2018-12-26T13:35:49.839Z,0.77
2018-12-26T13:38:19.765Z,0.80
2018-12-26T13:40:49.393Z,1.10
2018-12-26T13:43:19.002Z,0.90
2018-12-26T13:45:49.307Z,0.87
2018-12-26T13:48:37.751Z,0.70
2018-12-26T13:51:07.503Z,0.80
2018-12-26T13:53:37.123Z,0.93
2018-12-26T13:56:06.739Z,0.80
2018-12-26T13:58:36.635Z,1.10
2018-12-26T14:01:06.253Z,1.00
2018-12-26T14:03:56.250Z,1.10
2018-12-26T14:06:25.903Z,1.07
2018-12-26T14:08:55.635Z,1.00
2018-12-26T14:11:25.381Z,0.70
2018-12-26T14:13:55.014Z,0.90
2018-12-26T14:16:24.674Z,1.03
2018-12-26T14:18:54.463Z,1.00
2018-12-26T14:21:24.092Z,0.70
2018-12-26T14:23:53.762Z,0.83
2018-12-26T14:26:23.538Z,0.80
2018-12-26T14:28:53.188Z,0.57
2018-12-26T14:31:22.797Z,0.80
2018-12-26T14:33:52.625Z,0.83
2018-12-26T14:39:11.067Z,0.60
2018-12-26T14:41:40.691Z,0.80
2018-12-26T14:44:10.309Z,0.70
2018-12-26T14:46:58.876Z,0.70
2018-12-26T14:49:28.502Z,0.70
2018-12-26T14:51:58.118Z,0.70
2018-12-26T14:57:24.175Z,1.17
2018-12-26T14:59:53.817Z,0.73
2018-12-26T15:02:23.422Z,0.83
2018-12-26T15:04:53.371Z,1.03
2018-12-26T15:07:22.989Z,0.80
2018-12-26T15:09:52.695Z,0.90
2018-12-26T15:12:22.493Z,0.73
2018-12-26T15:14:52.112Z,1.30
2018-12-26T15:17:21.864Z,1.20
2018-12-26T15:19:51.662Z,1.20
2018-12-26T15:22:21.282Z,1.00
2018-12-26T15:24:50.920Z,1.10
2018-12-26T15:27:20.899Z,1.37
2018-12-26T15:29:50.545Z,0.90
2018-12-26T15:32:20.181Z,1.20
2018-12-26T15:34:49.933Z,1.43
2018-12-26T15:37:19.650Z,1.50
2018-12-26T15:39:49.281Z,1.77
2018-12-26T15:42:58.316Z,1.47
2018-12-26T15:45:27.947Z,1.50
2018-12-26T15:47:57.583Z,1.47
2018-12-26T15:50:27.702Z,1.17
2018-12-26T15:52:57.361Z,1.50
2018-12-26T15:55:26.990Z,1.60
2018-12-26T15:57:59.290Z,1.13
2018-12-26T16:00:37.218Z,1.20
2018-12-26T16:03:00.553Z,1.57
2018-12-26T16:05:30.565Z,1.20
2018-12-26T16:08:04.748Z,1.40
2018-12-26T16:10:34.494Z,1.33
2018-12-26T16:13:04.174Z,1.30
2018-12-26T16:15:34.023Z,1.37
2018-12-26T16:18:03.754Z,1.03
2018-12-26T16:20:33.460Z,1.70
2018-12-26T16:23:03.217Z,1.30
2018-12-26T16:25:32.879Z,1.50
2018-12-26T16:28:02.557Z,1.40
2018-12-26T16:30:32.450Z,1.77
2018-12-26T16:33:21.496Z,1.43
2018-12-26T16:35:51.181Z,1.40
2018-12-26T16:41:09.610Z,1.47
2018-12-26T16:43:39.249Z,1.27
2018-12-26T16:46:08.880Z,1.40
2018-12-26T16:48:38.720Z,1.40
2018-12-26T16:51:08.357Z,1.60
2018-12-26T16:53:38.009Z,1.67
2018-12-26T16:56:07.751Z,2.00
2018-12-26T16:58:56.364Z,1.90
2018-12-26T17:01:26.245Z,1.60
2018-12-26T17:03:56.069Z,1.40
2018-12-26T17:06:25.752Z,1.33
2018-12-26T17:08:55.670Z,1.40
2018-12-26T17:11:25.405Z,1.33
2018-12-26T17:13:55.030Z,1.73
2018-12-26T17:16:24.789Z,1.20
2018-12-26T17:18:54.458Z,1.80
2018-12-26T17:21:24.080Z,1.43
2018-12-26T17:23:53.922Z,1.30
2018-12-26T17:26:23.559Z,1.37
2018-12-26T17:28:53.174Z,1.17
2018-12-26T17:31:23.170Z,1.30
2018-12-26T17:33:52.889Z,0.90
2018-12-26T17:36:22.568Z,1.17
2018-12-26T17:38:52.362Z,1.07
2018-12-26T17:41:21.998Z,1.20
2018-12-26T17:43:51.629Z,1.10
2018-12-26T17:46:21.622Z,1.17
2018-12-26T17:48:51.271Z,1.00
2018-12-26T17:51:23.232Z,1.60
2018-12-26T17:54:30.713Z,1.47
2018-12-26T17:57:21.231Z,1.33
2018-12-26T18:00:13.799Z,1.30
2018-12-26T18:02:46.515Z,1.27
2018-12-26T18:05:16.123Z,1.37
2018-12-26T18:07:45.899Z,1.90
2018-12-26T18:10:15.755Z,1.73
2018-12-26T18:12:45.475Z,1.20
2018-12-26T18:17:50.863Z,1.20
2018-12-26T18:20:20.581Z,1.43
2018-12-26T18:23:09.374Z,1.20
2018-12-26T18:25:39.014Z,1.50
2018-12-26T18:28:08.622Z,1.03
2018-12-26T18:30:38.328Z,1.33
2018-12-26T18:33:08.069Z,1.40
2018-12-26T18:35:37.700Z,1.87
2018-12-26T18:38:07.628Z,1.80
2018-12-26T18:40:37.406Z,1.47
2018-12-26T18:46:01.342Z,1.93
2018-12-26T18:48:52.329Z,2.00
2018-12-26T18:51:22.127Z,1.77
2018-12-26T18:53:51.764Z,1.20
2018-12-26T18:56:21.511Z,1.60
2018-12-26T18:58:51.299Z,1.27
2018-12-26T19:01:21.031Z,1.47
2018-12-26T19:03:50.660Z,1.17
2018-12-26T19:06:20.400Z,1.20
2018-12-26T19:08:50.061Z,1.37
2018-12-26T19:11:19.709Z,1.73
2018-12-26T19:13:49.749Z,1.30
2018-12-26T19:16:19.366Z,1.53
2018-12-26T19:18:49.002Z,1.07
2018-12-26T19:21:18.850Z,2.10
2018-12-26T19:23:49.072Z,1.80
2018-12-26T19:26:18.666Z,1.60
2018-12-26T19:29:27.683Z,1.93
2018-12-26T19:31:57.318Z,2.07
2018-12-26T19:34:29.426Z,1.70
2018-12-26T19:36:59.136Z,1.90
2018-12-26T19:39:28.767Z,2.00
2018-12-26T19:41:58.533Z,1.57
2018-12-26T19:44:28.220Z,1.77
2018-12-26T19:46:57.847Z,1.90
2018-12-26T19:49:27.571Z,2.00
2018-12-26T19:51:57.401Z,1.70
2018-12-26T19:57:15.957Z,1.63
2018-12-26T19:59:45.596Z,1.43
2018-12-26T20:02:15.226Z,1.40
2018-12-26T20:04:45.167Z,1.60
2018-12-26T20:07:14.787Z,1.20
2018-12-26T20:09:44.422Z,1.10
2018-12-26T20:12:14.298Z,1.40
2018-12-26T20:14:44.025Z,1.43
2018-12-26T20:17:13.642Z,1.50
2018-12-26T20:19:43.639Z,2.10
2018-12-26T20:22:13.271Z,1.87
2018-12-26T20:24:42.988Z,1.87
2018-12-26T20:27:12.717Z,1.90
2018-12-26T20:29:42.680Z,1.70
2018-12-26T20:32:12.345Z,1.90
2018-12-26T20:34:42.206Z,1.77
2018-12-26T20:37:11.872Z,1.60
2018-12-26T20:39:41.503Z,1.90
2018-12-26T20:42:11.948Z,1.77
2018-12-26T20:44:41.590Z,1.53
2018-12-26T20:47:11.227Z,1.23
2018-12-26T20:49:40.998Z,1.43
2018-12-26T20:52:10.648Z,1.10
2018-12-26T20:54:40.376Z,1.30
2018-12-26T20:57:10.149Z,1.63
2018-12-26T20:59:39.883Z,1.40
2018-12-26T21:02:09.580Z,1.27
2018-12-26T21:04:39.529Z,1.40
2018-12-26T21:07:09.260Z,1.47
2018-12-26T21:09:38.910Z,1.20
2018-12-26T21:12:08.749Z,1.60
2018-12-26T21:14:38.393Z,1.27
2018-12-26T21:17:08.150Z,1.47
2018-12-26T21:19:38.293Z,1.50
2018-12-26T21:22:07.925Z,1.80
2018-12-26T21:24:37.548Z,1.40
2018-12-26T21:27:07.522Z,1.40
2018-12-26T21:29:37.196Z,1.43
2018-12-26T21:32:46.972Z,1.10
2018-12-26T21:35:16.809Z,1.50
2018-12-26T21:37:47.037Z,1.60
2018-12-26T21:40:16.988Z,1.50
2018-12-26T21:42:46.670Z,1.70
2018-12-26T21:45:16.322Z,1.30
2018-12-26T21:47:46.063Z,1.17
2018-12-26T21:50:15.710Z,1.30
2018-12-26T21:52:45.329Z,1.20
2018-12-26T21:55:15.177Z,1.17
2018-12-26T21:57:45.131Z,1.20
2018-12-26T22:00:14.803Z,1.20
2018-12-26T22:02:44.723Z,1.20
2018-12-26T22:05:14.682Z,1.30
2018-12-26T22:08:03.472Z,1.10
2018-12-26T22:13:22.705Z,1.30
2018-12-26T22:15:52.371Z,1.23
2018-12-26T22:21:12.728Z,1.20
2018-12-26T22:23:42.397Z,1.20
2018-12-26T22:26:12.027Z,0.90
2018-12-26T22:28:41.807Z,1.20
2018-12-26T22:31:11.437Z,1.03
2018-12-26T22:34:00.041Z,1.10
2018-12-26T22:36:29.700Z,1.33
2018-12-26T22:39:18.331Z,0.93
2018-12-26T22:41:47.963Z,1.20
2018-12-26T22:44:17.622Z,1.53
2018-12-26T22:47:06.240Z,1.30
2018-12-26T22:49:36.296Z,1.40
2018-12-26T22:52:05.975Z,1.40
2018-12-26T22:54:57.070Z,1.00
2018-12-26T22:57:26.686Z,1.23
2018-12-26T22:59:59.663Z,1.20
2018-12-26T23:02:29.528Z,1.10
2018-12-26T23:04:59.192Z,1.30
2018-12-26T23:07:29.205Z,1.30
2018-12-26T23:12:50.791Z,1.00
2018-12-26T23:15:20.455Z,1.00
2018-12-26T23:17:50.077Z,1.20
2018-12-26T23:20:19.869Z,1.10
2018-12-26T23:22:49.582Z,0.97
2018-12-26T23:25:19.222Z,0.90
2018-12-26T23:27:48.935Z,1.00
2018-12-26T23:30:18.599Z,1.07
2018-12-26T23:32:48.231Z,1.40
2018-12-26T23:35:17.954Z,1.20
2018-12-26T23:37:47.614Z,1.27
2018-12-26T23:40:17.299Z,1.10
2018-12-26T23:43:06.124Z,1.00
2018-12-26T23:45:35.765Z,0.80
2018-12-26T23:48:05.401Z,0.70
2018-12-26T23:50:35.303Z,0.97
2018-12-26T23:53:04.937Z,1.07
2018-12-26T23:55:36.841Z,1.00
2018-12-26T23:58:06.520Z,1.40
